sensor_id;sensor_type;location;lat;lon;timestamp;P1;durP1;ratioP1;P2;durP2;ratioP2
16866;SDS011;8550;52.596;13.320;2023-10-09T00:00:33;2.15;;;0.75;;
16866;SDS011;8550;52.596;13.320;2023-10-09T00:05:57;4.72;;;1.17;;
16866;SDS011;8550;52.596;13.320;2023-10-09T00:10:59;2.60;;;0.40;;
16866;SDS011;8550;52.596;13.320;2023-10-09T00:16:13;1.17;;;0.50;;
16866;SDS011;8550;52.596;13.320;2023-10-09T00:21:24;2.10;;;0.82;;
16866;SDS011;8550;52.596;13.320;2023-10-09T00:26:34;3.53;;;1.23;;
16866;SDS011;8550;52.596;13.320;2023-10-09T00:31:43;3.80;;;0.67;;
16866;SDS011;8550;52.596;13.320;2023-10-09T00:36:51;3.55;;;0.52;;
16866;SDS011;8550;52.596;13.320;2023-10-09T00:41:55;6.75;;;0.68;;
16866;SDS011;8550;52.596;13.320;2023-10-09T00:46:59;2.00;;;0.40;;
16866;SDS011;8550;52.596;13.320;2023-10-09T00:52:10;2.90;;;0.88;;
16866;SDS011;8550;52.596;13.320;2023-10-09T00:57:18;1.42;;;0.65;;
16866;SDS011;8550;52.596;13.320;2023-10-09T01:02:25;3.47;;;1.10;;
16866;SDS011;8550;52.596;13.320;2023-10-09T01:07:37;3.17;;;0.80;;
16866;SDS011;8550;52.596;13.320;2023-10-09T01:12:40;1.42;;;0.50;;
16866;SDS011;8550;52.596;13.320;2023-10-09T01:17:44;1.37;;;0.43;;
16866;SDS011;8550;52.596;13.320;2023-10-09T01:22:49;1.40;;;0.63;;
16866;SDS011;8550;52.596;13.320;2023-10-09T01:27:52;2.20;;;0.88;;
16866;SDS011;8550;52.596;13.320;2023-10-09T01:32:54;2.15;;;0.82;;
16866;SDS011;8550;52.596;13.320;2023-10-09T01:37:59;1.83;;;0.77;;
16866;SDS011;8550;52.596;13.320;2023-10-09T01:43:02;2.97;;;0.90;;
16866;SDS011;8550;52.596;13.320;2023-10-09T01:48:05;2.13;;;0.93;;
16866;SDS011;8550;52.596;13.320;2023-10-09T01:53:08;1.43;;;0.57;;
16866;SDS011;8550;52.596;13.320;2023-10-09T01:58:11;3.20;;;0.85;;
16866;SDS011;8550;52.596;13.320;2023-10-09T02:03:24;2.58;;;1.02;;
16866;SDS011;8550;52.596;13.320;2023-10-09T02:08:29;2.10;;;0.90;;
16866;SDS011;8550;52.596;13.320;2023-10-09T02:13:36;3.53;;;0.80;;
16866;SDS011;8550;52.596;13.320;2023-10-09T02:18:42;1.33;;;0.60;;
16866;SDS011;8550;52.596;13.320;2023-10-09T02:23:54;2.25;;;0.88;;
16866;SDS011;8550;52.596;13.320;2023-10-09T02:28:58;1.73;;;0.83;;
16866;SDS011;8550;52.596;13.320;2023-10-09T02:34:04;2.38;;;1.05;;
16866;SDS011;8550;52.596;13.320;2023-10-09T02:39:08;2.85;;;1.33;;
16866;SDS011;8550;52.596;13.320;2023-10-09T02:44:24;4.07;;;1.40;;
16866;SDS011;8550;52.596;13.320;2023-10-09T02:49:30;1.35;;;0.73;;
16866;SDS011;8550;52.596;13.320;2023-10-09T02:54:34;2.05;;;0.90;;
16866;SDS011;8550;52.596;13.320;2023-10-09T02:59:37;2.60;;;1.07;;
16866;SDS011;8550;52.596;13.320;2023-10-09T03:04:44;2.00;;;0.63;;
16866;SDS011;8550;52.596;13.320;2023-10-09T03:09:46;7.03;;;1.52;;
16866;SDS011;8550;52.596;13.320;2023-10-09T03:14:51;3.03;;;0.90;;
16866;SDS011;8550;52.596;13.320;2023-10-09T03:19:55;2.53;;;1.00;;
16866;SDS011;8550;52.596;13.320;2023-10-09T03:24:56;2.95;;;0.90;;
16866;SDS011;8550;52.596;13.320;2023-10-09T03:30:01;7.43;;;1.08;;
16866;SDS011;8550;52.596;13.320;2023-10-09T03:35:05;3.00;;;0.93;;
16866;SDS011;8550;52.596;13.320;2023-10-09T03:40:16;5.20;;;1.90;;
16866;SDS011;8550;52.596;13.320;2023-10-09T03:45:20;8.65;;;1.27;;
16866;SDS011;8550;52.596;13.320;2023-10-09T03:50:26;3.07;;;1.60;;
16866;SDS011;8550;52.596;13.320;2023-10-09T03:55:35;2.33;;;0.97;;
16866;SDS011;8550;52.596;13.320;2023-10-09T04:00:40;2.53;;;0.98;;
16866;SDS011;8550;52.596;13.320;2023-10-09T04:05:46;3.15;;;0.98;;
16866;SDS011;8550;52.596;13.320;2023-10-09T04:10:51;2.33;;;0.93;;
16866;SDS011;8550;52.596;13.320;2023-10-09T04:15:55;7.05;;;0.63;;
16866;SDS011;8550;52.596;13.320;2023-10-09T04:20:57;2.58;;;0.82;;
16866;SDS011;8550;52.596;13.320;2023-10-09T04:26:16;6.00;;;1.40;;
16866;SDS011;8550;52.596;13.320;2023-10-09T04:31:22;2.22;;;0.77;;
16866;SDS011;8550;52.596;13.320;2023-10-09T04:36:31;3.03;;;1.48;;
16866;SDS011;8550;52.596;13.320;2023-10-09T04:41:46;2.10;;;0.83;;
16866;SDS011;8550;52.596;13.320;2023-10-09T04:47:16;3.23;;;1.43;;
16866;SDS011;8550;52.596;13.320;2023-10-09T04:52:25;3.72;;;1.02;;
16866;SDS011;8550;52.596;13.320;2023-10-09T04:57:41;2.42;;;1.05;;
16866;SDS011;8550;52.596;13.320;2023-10-09T05:03:02;6.87;;;1.00;;
16866;SDS011;8550;52.596;13.320;2023-10-09T05:08:11;2.25;;;0.95;;
16866;SDS011;8550;52.596;13.320;2023-10-09T05:13:19;5.00;;;1.17;;
16866;SDS011;8550;52.596;13.320;2023-10-09T05:18:42;2.50;;;1.10;;
16866;SDS011;8550;52.596;13.320;2023-10-09T05:23:45;1.65;;;0.70;;
16866;SDS011;8550;52.596;13.320;2023-10-09T05:28:49;5.32;;;1.30;;
16866;SDS011;8550;52.596;13.320;2023-10-09T05:33:54;3.90;;;1.30;;
16866;SDS011;8550;52.596;13.320;2023-10-09T05:39:01;1.67;;;0.80;;
16866;SDS011;8550;52.596;13.320;2023-10-09T05:44:22;3.22;;;1.48;;
16866;SDS011;8550;52.596;13.320;2023-10-09T05:49:43;2.75;;;1.20;;
16866;SDS011;8550;52.596;13.320;2023-10-09T05:54:54;2.33;;;0.90;;
16866;SDS011;8550;52.596;13.320;2023-10-09T06:00:11;3.70;;;1.30;;
16866;SDS011;8550;52.596;13.320;2023-10-09T06:05:32;7.20;;;2.03;;
16866;SDS011;8550;52.596;13.320;2023-10-09T06:10:41;3.43;;;1.77;;
16866;SDS011;8550;52.596;13.320;2023-10-09T06:15:44;5.10;;;1.33;;
16866;SDS011;8550;52.596;13.320;2023-10-09T06:21:10;3.95;;;1.52;;
16866;SDS011;8550;52.596;13.320;2023-10-09T06:26:30;3.40;;;1.60;;
16866;SDS011;8550;52.596;13.320;2023-10-09T06:31:33;3.67;;;2.03;;
16866;SDS011;8550;52.596;13.320;2023-10-09T06:36:58;13.18;;;2.35;;
16866;SDS011;8550;52.596;13.320;2023-10-09T06:42:06;4.28;;;1.73;;
16866;SDS011;8550;52.596;13.320;2023-10-09T06:47:30;2.63;;;1.03;;
16866;SDS011;8550;52.596;13.320;2023-10-09T06:52:42;3.47;;;1.55;;
16866;SDS011;8550;52.596;13.320;2023-10-09T06:58:19;2.83;;;1.40;;
16866;SDS011;8550;52.596;13.320;2023-10-09T07:03:27;2.13;;;1.03;;
16866;SDS011;8550;52.596;13.320;2023-10-09T07:08:34;6.63;;;1.52;;
16866;SDS011;8550;52.596;13.320;2023-10-09T07:13:38;3.70;;;1.15;;
16866;SDS011;8550;52.596;13.320;2023-10-09T07:18:40;3.07;;;0.93;;
16866;SDS011;8550;52.596;13.320;2023-10-09T07:23:50;12.03;;;1.33;;
16866;SDS011;8550;52.596;13.320;2023-10-09T07:28:57;3.67;;;1.55;;
16866;SDS011;8550;52.596;13.320;2023-10-09T07:34:16;1.73;;;0.73;;
16866;SDS011;8550;52.596;13.320;2023-10-09T07:39:54;8.87;;;1.10;;
16866;SDS011;8550;52.596;13.320;2023-10-09T07:44:59;2.45;;;0.95;;
16866;SDS011;8550;52.596;13.320;2023-10-09T07:50:12;3.20;;;1.15;;
16866;SDS011;8550;52.596;13.320;2023-10-09T07:55:22;2.83;;;1.03;;
16866;SDS011;8550;52.596;13.320;2023-10-09T08:00:29;9.00;;;1.50;;
16866;SDS011;8550;52.596;13.320;2023-10-09T08:05:49;2.10;;;0.90;;
16866;SDS011;8550;52.596;13.320;2023-10-09T08:10:54;9.63;;;1.23;;
16866;SDS011;8550;52.596;13.320;2023-10-09T08:16:13;3.77;;;1.27;;
16866;SDS011;8550;52.596;13.320;2023-10-09T08:21:21;5.38;;;1.35;;
16866;SDS011;8550;52.596;13.320;2023-10-09T08:26:39;4.43;;;1.60;;
16866;SDS011;8550;52.596;13.320;2023-10-09T08:31:48;6.57;;;1.93;;
16866;SDS011;8550;52.596;13.320;2023-10-09T08:36:57;2.63;;;0.82;;
16866;SDS011;8550;52.596;13.320;2023-10-09T08:42:01;3.47;;;1.02;;
16866;SDS011;8550;52.596;13.320;2023-10-09T08:47:08;4.50;;;1.60;;
16866;SDS011;8550;52.596;13.320;2023-10-09T08:52:11;3.85;;;1.67;;
16866;SDS011;8550;52.596;13.320;2023-10-09T08:57:16;7.28;;;1.08;;
16866;SDS011;8550;52.596;13.320;2023-10-09T09:02:19;5.63;;;2.07;;
16866;SDS011;8550;52.596;13.320;2023-10-09T09:07:23;4.67;;;1.57;;
16866;SDS011;8550;52.596;13.320;2023-10-09T09:12:30;3.80;;;1.92;;
16866;SDS011;8550;52.596;13.320;2023-10-09T09:17:37;5.40;;;1.95;;
16866;SDS011;8550;52.596;13.320;2023-10-09T09:22:51;3.73;;;1.57;;
16866;SDS011;8550;52.596;13.320;2023-10-09T09:27:56;5.38;;;2.17;;
16866;SDS011;8550;52.596;13.320;2023-10-09T09:33:19;4.20;;;1.85;;
16866;SDS011;8550;52.596;13.320;2023-10-09T09:38:26;4.00;;;1.83;;
16866;SDS011;8550;52.596;13.320;2023-10-09T09:43:30;2.97;;;1.25;;
16866;SDS011;8550;52.596;13.320;2023-10-09T09:48:37;4.53;;;1.92;;
16866;SDS011;8550;52.596;13.320;2023-10-09T09:53:44;5.37;;;1.80;;
16866;SDS011;8550;52.596;13.320;2023-10-09T09:58:51;3.57;;;1.93;;
16866;SDS011;8550;52.596;13.320;2023-10-09T10:03:58;4.65;;;2.42;;
16866;SDS011;8550;52.596;13.320;2023-10-09T10:09:04;5.00;;;2.03;;
16866;SDS011;8550;52.596;13.320;2023-10-09T10:14:08;5.10;;;2.67;;
16866;SDS011;8550;52.596;13.320;2023-10-09T10:19:12;5.28;;;2.42;;
16866;SDS011;8550;52.596;13.320;2023-10-09T10:35:33;4.18;;;2.25;;
16866;SDS011;8550;52.596;13.320;2023-10-09T10:40:44;2.97;;;1.10;;
16866;SDS011;8550;52.596;13.320;2023-10-09T10:45:51;3.07;;;1.20;;
16866;SDS011;8550;52.596;13.320;2023-10-09T10:51:03;3.50;;;1.50;;
16866;SDS011;8550;52.596;13.320;2023-10-09T10:56:05;6.70;;;1.65;;
16866;SDS011;8550;52.596;13.320;2023-10-09T11:01:20;4.03;;;1.55;;
16866;SDS011;8550;52.596;13.320;2023-10-09T11:06:25;2.70;;;1.20;;
16866;SDS011;8550;52.596;13.320;2023-10-09T11:11:36;3.15;;;1.70;;
16866;SDS011;8550;52.596;13.320;2023-10-09T11:16:48;3.60;;;1.30;;
16866;SDS011;8550;52.596;13.320;2023-10-09T11:21:51;2.93;;;1.10;;
16866;SDS011;8550;52.596;13.320;2023-10-09T11:27:19;8.25;;;1.15;;
16866;SDS011;8550;52.596;13.320;2023-10-09T11:32:26;2.80;;;1.02;;
16866;SDS011;8550;52.596;13.320;2023-10-09T11:37:32;3.47;;;1.53;;
16866;SDS011;8550;52.596;13.320;2023-10-09T11:42:42;2.60;;;1.33;;
16866;SDS011;8550;52.596;13.320;2023-10-09T11:47:50;5.15;;;1.52;;
16866;SDS011;8550;52.596;13.320;2023-10-09T11:52:58;3.60;;;1.67;;
16866;SDS011;8550;52.596;13.320;2023-10-09T11:58:09;3.07;;;1.47;;
16866;SDS011;8550;52.596;13.320;2023-10-09T12:03:13;6.05;;;2.08;;
16866;SDS011;8550;52.596;13.320;2023-10-09T12:08:15;3.33;;;1.50;;
16866;SDS011;8550;52.596;13.320;2023-10-09T12:13:17;3.63;;;1.40;;
16866;SDS011;8550;52.596;13.320;2023-10-09T12:18:20;4.20;;;2.00;;
16866;SDS011;8550;52.596;13.320;2023-10-09T12:23:24;6.80;;;1.58;;
16866;SDS011;8550;52.596;13.320;2023-10-09T12:28:28;5.87;;;1.77;;
16866;SDS011;8550;52.596;13.320;2023-10-09T12:33:31;5.17;;;1.73;;
16866;SDS011;8550;52.596;13.320;2023-10-09T12:38:39;3.72;;;1.95;;
16866;SDS011;8550;52.596;13.320;2023-10-09T12:43:46;4.47;;;1.38;;
16866;SDS011;8550;52.596;13.320;2023-10-09T12:48:49;5.27;;;1.70;;
16866;SDS011;8550;52.596;13.320;2023-10-09T12:53:54;5.85;;;2.25;;
16866;SDS011;8550;52.596;13.320;2023-10-09T12:58:58;4.70;;;2.20;;
16866;SDS011;8550;52.596;13.320;2023-10-09T13:04:02;4.20;;;2.20;;
16866;SDS011;8550;52.596;13.320;2023-10-09T13:09:11;4.55;;;1.83;;
16866;SDS011;8550;52.596;13.320;2023-10-09T13:14:14;7.65;;;1.92;;
16866;SDS011;8550;52.596;13.320;2023-10-09T13:19:20;4.33;;;2.20;;
16866;SDS011;8550;52.596;13.320;2023-10-09T13:24:24;4.97;;;1.90;;
16866;SDS011;8550;52.596;13.320;2023-10-09T13:29:29;4.80;;;1.95;;
16866;SDS011;8550;52.596;13.320;2023-10-09T13:34:35;4.82;;;2.03;;
16866;SDS011;8550;52.596;13.320;2023-10-09T13:39:40;3.93;;;1.80;;
16866;SDS011;8550;52.596;13.320;2023-10-09T13:44:52;5.93;;;2.63;;
16866;SDS011;8550;52.596;13.320;2023-10-09T13:49:56;5.45;;;2.35;;
16866;SDS011;8550;52.596;13.320;2023-10-09T13:54:59;6.97;;;2.37;;
16866;SDS011;8550;52.596;13.320;2023-10-09T14:00:15;4.05;;;2.05;;
16866;SDS011;8550;52.596;13.320;2023-10-09T14:05:33;4.47;;;2.13;;
16866;SDS011;8550;52.596;13.320;2023-10-09T14:10:51;6.87;;;3.33;;
16866;SDS011;8550;52.596;13.320;2023-10-09T14:15:54;5.40;;;2.77;;
16866;SDS011;8550;52.596;13.320;2023-10-09T14:21:04;6.35;;;2.78;;
16866;SDS011;8550;52.596;13.320;2023-10-09T14:26:15;7.82;;;3.40;;
16866;SDS011;8550;52.596;13.320;2023-10-09T14:31:18;6.80;;;2.93;;
16866;SDS011;8550;52.596;13.320;2023-10-09T14:36:28;8.75;;;3.47;;
16866;SDS011;8550;52.596;13.320;2023-10-09T14:41:33;6.90;;;3.25;;
16866;SDS011;8550;52.596;13.320;2023-10-09T14:46:35;7.03;;;3.90;;
16866;SDS011;8550;52.596;13.320;2023-10-09T14:51:38;6.75;;;2.60;;
16866;SDS011;8550;52.596;13.320;2023-10-09T14:56:41;6.13;;;3.50;;
16866;SDS011;8550;52.596;13.320;2023-10-09T15:01:45;5.43;;;2.80;;
16866;SDS011;8550;52.596;13.320;2023-10-09T15:06:50;6.83;;;2.90;;
16866;SDS011;8550;52.596;13.320;2023-10-09T15:11:52;4.38;;;2.42;;
16866;SDS011;8550;52.596;13.320;2023-10-09T15:16:53;6.88;;;3.38;;
16866;SDS011;8550;52.596;13.320;2023-10-09T15:21:57;6.13;;;3.07;;
16866;SDS011;8550;52.596;13.320;2023-10-09T15:27:00;4.43;;;2.25;;
16866;SDS011;8550;52.596;13.320;2023-10-09T15:32:02;6.05;;;3.25;;
16866;SDS011;8550;52.596;13.320;2023-10-09T15:37:13;6.37;;;3.10;;
16866;SDS011;8550;52.596;13.320;2023-10-09T15:42:17;5.10;;;2.40;;
16866;SDS011;8550;52.596;13.320;2023-10-09T15:47:21;5.45;;;2.80;;
16866;SDS011;8550;52.596;13.320;2023-10-09T15:52:24;5.77;;;2.57;;
16866;SDS011;8550;52.596;13.320;2023-10-09T15:57:28;5.67;;;3.23;;
16866;SDS011;8550;52.596;13.320;2023-10-09T16:02:39;6.70;;;3.03;;
16866;SDS011;8550;52.596;13.320;2023-10-09T16:07:45;8.50;;;3.58;;
16866;SDS011;8550;52.596;13.320;2023-10-09T16:12:47;7.97;;;3.87;;
16866;SDS011;8550;52.596;13.320;2023-10-09T16:17:51;5.18;;;2.97;;
16866;SDS011;8550;52.596;13.320;2023-10-09T16:22:59;5.28;;;2.28;;
16866;SDS011;8550;52.596;13.320;2023-10-09T16:28:04;7.63;;;3.07;;
16866;SDS011;8550;52.596;13.320;2023-10-09T16:33:06;8.05;;;3.20;;
16866;SDS011;8550;52.596;13.320;2023-10-09T16:38:10;5.72;;;3.25;;
16866;SDS011;8550;52.596;13.320;2023-10-09T16:43:13;8.40;;;3.30;;
16866;SDS011;8550;52.596;13.320;2023-10-09T16:48:15;7.13;;;3.90;;
16866;SDS011;8550;52.596;13.320;2023-10-09T16:53:18;4.82;;;2.25;;
16866;SDS011;8550;52.596;13.320;2023-10-09T16:58:20;7.45;;;3.58;;
16866;SDS011;8550;52.596;13.320;2023-10-09T17:03:22;8.27;;;3.43;;
16866;SDS011;8550;52.596;13.320;2023-10-09T17:08:29;12.07;;;5.35;;
16866;SDS011;8550;52.596;13.320;2023-10-09T17:13:34;7.22;;;3.55;;
16866;SDS011;8550;52.596;13.320;2023-10-09T17:18:37;7.37;;;3.63;;
16866;SDS011;8550;52.596;13.320;2023-10-09T17:23:40;7.80;;;3.72;;
16866;SDS011;8550;52.596;13.320;2023-10-09T17:28:45;8.18;;;3.97;;
16866;SDS011;8550;52.596;13.320;2023-10-09T17:33:47;6.07;;;3.90;;
16866;SDS011;8550;52.596;13.320;2023-10-09T17:38:51;5.97;;;3.00;;
16866;SDS011;8550;52.596;13.320;2023-10-09T17:43:53;7.43;;;3.85;;
16866;SDS011;8550;52.596;13.320;2023-10-09T17:48:58;5.35;;;3.17;;
16866;SDS011;8550;52.596;13.320;2023-10-09T17:54:01;8.87;;;3.30;;
16866;SDS011;8550;52.596;13.320;2023-10-09T17:59:03;7.57;;;3.35;;
16866;SDS011;8550;52.596;13.320;2023-10-09T18:04:11;9.15;;;4.05;;
16866;SDS011;8550;52.596;13.320;2023-10-09T18:09:15;11.33;;;3.27;;
16866;SDS011;8550;52.596;13.320;2023-10-09T18:14:17;7.18;;;3.38;;
16866;SDS011;8550;52.596;13.320;2023-10-09T18:19:19;7.88;;;3.60;;
16866;SDS011;8550;52.596;13.320;2023-10-09T18:24:22;7.97;;;3.77;;
16866;SDS011;8550;52.596;13.320;2023-10-09T18:29:24;7.33;;;3.47;;
16866;SDS011;8550;52.596;13.320;2023-10-09T18:34:26;6.63;;;3.20;;
16866;SDS011;8550;52.596;13.320;2023-10-09T18:39:31;7.43;;;3.25;;
16866;SDS011;8550;52.596;13.320;2023-10-09T18:44:33;6.83;;;3.73;;
16866;SDS011;8550;52.596;13.320;2023-10-09T18:49:35;7.22;;;3.17;;
16866;SDS011;8550;52.596;13.320;2023-10-09T18:54:38;7.57;;;3.00;;
16866;SDS011;8550;52.596;13.320;2023-10-09T18:59:41;5.43;;;3.23;;
16866;SDS011;8550;52.596;13.320;2023-10-09T19:04:43;8.57;;;3.17;;
16866;SDS011;8550;52.596;13.320;2023-10-09T19:09:47;7.25;;;3.88;;
16866;SDS011;8550;52.596;13.320;2023-10-09T19:14:49;8.63;;;4.23;;
16866;SDS011;8550;52.596;13.320;2023-10-09T19:19:51;7.20;;;4.37;;
16866;SDS011;8550;52.596;13.320;2023-10-09T19:24:56;8.07;;;4.47;;
16866;SDS011;8550;52.596;13.320;2023-10-09T19:29:59;9.15;;;4.05;;
16866;SDS011;8550;52.596;13.320;2023-10-09T19:35:04;10.73;;;4.80;;
16866;SDS011;8550;52.596;13.320;2023-10-09T19:40:10;5.82;;;3.60;;
16866;SDS011;8550;52.596;13.320;2023-10-09T19:45:12;8.57;;;5.28;;
16866;SDS011;8550;52.596;13.320;2023-10-09T19:50:19;7.87;;;4.23;;
16866;SDS011;8550;52.596;13.320;2023-10-09T19:55:24;7.95;;;4.00;;
16866;SDS011;8550;52.596;13.320;2023-10-09T20:00:47;7.65;;;3.83;;
16866;SDS011;8550;52.596;13.320;2023-10-09T20:06:05;9.27;;;4.10;;
16866;SDS011;8550;52.596;13.320;2023-10-09T20:11:09;5.87;;;3.40;;
16866;SDS011;8550;52.596;13.320;2023-10-09T20:16:12;5.20;;;2.38;;
16866;SDS011;8550;52.596;13.320;2023-10-09T20:21:14;5.53;;;2.70;;
16866;SDS011;8550;52.596;13.320;2023-10-09T20:26:20;7.17;;;3.43;;
16866;SDS011;8550;52.596;13.320;2023-10-09T20:31:22;9.70;;;4.47;;
16866;SDS011;8550;52.596;13.320;2023-10-09T20:36:25;6.68;;;3.50;;
16866;SDS011;8550;52.596;13.320;2023-10-09T20:41:32;8.07;;;4.67;;
16866;SDS011;8550;52.596;13.320;2023-10-09T20:46:37;5.85;;;3.60;;
16866;SDS011;8550;52.596;13.320;2023-10-09T20:51:41;8.30;;;4.22;;
16866;SDS011;8550;52.596;13.320;2023-10-09T20:56:44;6.73;;;3.40;;
16866;SDS011;8550;52.596;13.320;2023-10-09T21:01:46;7.17;;;3.50;;
16866;SDS011;8550;52.596;13.320;2023-10-09T21:06:50;5.30;;;3.17;;
16866;SDS011;8550;52.596;13.320;2023-10-09T21:12:13;8.25;;;3.05;;
16866;SDS011;8550;52.596;13.320;2023-10-09T21:17:22;8.23;;;3.57;;
16866;SDS011;8550;52.596;13.320;2023-10-09T21:22:38;5.40;;;2.97;;
16866;SDS011;8550;52.596;13.320;2023-10-09T21:27:44;5.40;;;2.85;;
16866;SDS011;8550;52.596;13.320;2023-10-09T21:32:47;13.20;;;4.00;;
16866;SDS011;8550;52.596;13.320;2023-10-09T21:37:49;9.48;;;3.60;;
16866;SDS011;8550;52.596;13.320;2023-10-09T21:42:55;11.13;;;3.90;;
16866;SDS011;8550;52.596;13.320;2023-10-09T21:47:57;6.60;;;3.60;;
16866;SDS011;8550;52.596;13.320;2023-10-09T21:52:59;7.67;;;3.60;;
16866;SDS011;8550;52.596;13.320;2023-10-09T21:58:02;6.60;;;3.50;;
16866;SDS011;8550;52.596;13.320;2023-10-09T22:03:10;6.13;;;3.42;;
16866;SDS011;8550;52.596;13.320;2023-10-09T22:08:13;10.90;;;4.80;;
16866;SDS011;8550;52.596;13.320;2023-10-09T22:13:17;7.32;;;4.03;;
16866;SDS011;8550;52.596;13.320;2023-10-09T22:18:19;5.95;;;2.97;;
16866;SDS011;8550;52.596;13.320;2023-10-09T22:23:21;6.53;;;3.30;;
16866;SDS011;8550;52.596;13.320;2023-10-09T22:28:32;9.70;;;4.60;;
16866;SDS011;8550;52.596;13.320;2023-10-09T22:33:34;11.13;;;4.20;;
16866;SDS011;8550;52.596;13.320;2023-10-09T22:38:49;7.77;;;4.07;;
16866;SDS011;8550;52.596;13.320;2023-10-09T22:43:56;5.63;;;2.93;;
16866;SDS011;8550;52.596;13.320;2023-10-09T22:48:59;7.38;;;4.15;;
16866;SDS011;8550;52.596;13.320;2023-10-09T22:54:04;9.95;;;3.97;;
16866;SDS011;8550;52.596;13.320;2023-10-09T22:59:13;6.13;;;2.73;;
16866;SDS011;8550;52.596;13.320;2023-10-09T23:04:21;7.28;;;3.47;;
16866;SDS011;8550;52.596;13.320;2023-10-09T23:09:37;10.15;;;3.78;;
16866;SDS011;8550;52.596;13.320;2023-10-09T23:14:50;7.17;;;3.77;;
16866;SDS011;8550;52.596;13.320;2023-10-09T23:19:55;7.60;;;3.33;;
16866;SDS011;8550;52.596;13.320;2023-10-09T23:24:57;7.43;;;3.60;;
16866;SDS011;8550;52.596;13.320;2023-10-09T23:30:11;6.77;;;3.37;;
16866;SDS011;8550;52.596;13.320;2023-10-09T23:35:16;5.90;;;3.73;;
16866;SDS011;8550;52.596;13.320;2023-10-09T23:40:21;8.73;;;3.60;;
16866;SDS011;8550;52.596;13.320;2023-10-09T23:45:39;6.85;;;3.42;;
16866;SDS011;8550;52.596;13.320;2023-10-09T23:50:41;4.80;;;2.30;;
16866;SDS011;8550;52.596;13.320;2023-10-09T23:55:47;6.20;;;2.72;;
